Houston, Texas
Traffic Map
Current Weather Conditions
Houston, Texas
Overcast
Overcast
70°
Feels Like: 70°
Wind Chill: 70° Ceiling: 1500
Heat Index: 70° Visibility: 10mi
Dew Point: 64° Wind: 9mph
Humidity: 83% Direction: 40° (NE)
Pressure: 29.81in Gusts: 0mph
Raw Report DataKMCJ 240655Z AUTO 04008KT 10SM OVC015 21/18 A2981 RMK AO1
Traffic Incident Summary
Active as of:
Severity:
Category:
InformationThere was an issue retrieving the traffic information for this location. Please try a different location or try again shortly.
Advertisements
At Last! Intellicast now available for iPhone and Android